Time;durP1;ratioP1;P1;durP2;ratioP2;P2;SDS_P1;SDS_P2;PMS_P1;PMS_P2;Temp;Humidity;BMP_temperature;BMP_pressure;BME280_temperature;BME280_humidity;BME280_pressure;Samples;Min_cycle;Max_cycle;Signal;HPM_P1;HPM_P2
2022/03/10 00:01:31;;;;;;;23.60;13.85;;;2.50;89.80;;;;;;5052438;28;20037;-72
2022/03/10 00:03:57;;;;;;;21.05;13.90;;;2.50;90.60;;;;;;5035268;28;20045;-72
2022/03/10 00:06:22;;;;;;;23.55;14.00;;;2.50;90.90;;;;;;5035737;28;20065;-72
2022/03/10 00:08:48;;;;;;;22.15;14.63;;;2.40;91.60;;;;;;5035015;28;20045;-72
2022/03/10 00:11:14;;;;;;;20.02;13.63;;;2.40;92.50;;;;;;5036090;28;20365;-73
2022/03/10 00:13:39;;;;;;;22.20;14.13;;;2.40;92.50;;;;;;5053100;28;20068;-72
2022/03/10 00:16:05;;;;;;;22.75;13.57;;;2.40;92.80;;;;;;5085276;28;20041;-72
2022/03/10 00:18:31;;;;;;;26.00;15.18;;;2.40;93.40;;;;;;5051247;28;20048;-72
2022/03/10 00:20:56;;;;;;;22.55;13.15;;;2.30;93.90;;;;;;5035148;28;20068;-72
2022/03/10 00:23:22;;;;;;;21.80;14.07;;;2.30;94.00;;;;;;5051073;28;20045;-71
2022/03/10 00:25:48;;;;;;;24.80;14.43;;;2.30;94.80;;;;;;5074054;28;20056;-72
2022/03/10 00:28:13;;;;;;;23.40;14.38;;;2.20;95.70;;;;;;5057452;28;20055;-72
2022/03/10 00:30:39;;;;;;;21.27;14.38;;;2.20;96.30;;;;;;5036881;28;20048;-72
2022/03/10 00:33:05;;;;;;;22.67;13.85;;;2.20;97.30;;;;;;5036865;28;20045;-72
2022/03/10 00:35:30;;;;;;;22.65;14.13;;;2.20;96.70;;;;;;5054342;28;20056;-73
2022/03/10 00:37:58;;;;;;;24.35;14.65;;;2.20;97.00;;;;;;5087045;28;20038;-72
2022/03/10 00:40:23;;;;;;;25.17;14.48;;;2.10;97.60;;;;;;5070187;28;20078;-72
2022/03/10 00:42:49;;;;;;;26.13;14.63;;;2.10;98.00;;;;;;5052363;28;20566;-72
2022/03/10 00:45:16;;;;;;;25.88;14.60;;;2.10;97.70;;;;;;5053560;28;20071;-72
2022/03/10 00:47:42;;;;;;;22.67;14.93;;;2.10;97.60;;;;;;5088398;28;20045;-71
2022/03/10 00:50:09;;;;;;;25.30;15.70;;;2.10;97.90;;;;;;5073740;28;20048;-72
2022/03/10 00:52:43;;;;;;;24.55;15.02;;;2.10;98.50;;;;;;5057350;28;20036;-72
2022/03/10 00:55:10;;;;;;;23.45;14.07;;;2.10;99.30;;;;;;5047223;28;20123;-72
2022/03/10 00:57:37;;;;;;;21.38;14.68;;;2.00;98.30;;;;;;5049428;28;20050;-72
2022/03/10 01:00:05;;;;;;;22.63;13.73;;;2.00;98.80;;;;;;5031512;28;20077;-72
2022/03/10 01:02:31;;;;;;;27.45;15.00;;;2.00;98.50;;;;;;5046820;28;20078;-72
2022/03/10 01:04:57;;;;;;;24.48;15.07;;;2.00;98.20;;;;;;5064050;28;20389;-72
2022/03/10 01:07:23;;;;;;;21.92;14.02;;;2.00;99.20;;;;;;5030223;28;20042;-72
2022/03/10 01:09:48;;;;;;;24.77;14.30;;;2.00;99.30;;;;;;5047579;28;20041;-72
2022/03/10 01:12:14;;;;;;;24.52;14.88;;;2.00;99.70;;;;;;5031655;28;20050;-72
2022/03/10 01:14:40;;;;;;;23.42;15.27;;;2.00;99.70;;;;;;5064229;28;20046;-72
2022/03/10 01:17:05;;;;;;;21.55;14.70;;;2.00;99.90;;;;;;5047166;28;20049;-72
2022/03/10 01:19:34;;;;;;;24.92;14.63;;;1.90;99.90;;;;;;5064002;28;20038;-72
2022/03/10 01:22:00;;;;;;;21.98;13.95;;;1.90;99.90;;;;;;5030844;28;20038;-72
2022/03/10 01:24:26;;;;;;;24.27;14.77;;;1.90;99.90;;;;;;5082924;28;20080;-72
2022/03/10 01:26:52;;;;;;;22.98;14.63;;;1.90;99.90;;;;;;5049872;28;20079;-73
2022/03/10 01:29:18;;;;;;;25.90;15.50;;;1.90;99.90;;;;;;5050098;28;20041;-71
2022/03/10 01:31:44;;;;;;;24.17;15.60;;;1.90;99.90;;;;;;5033328;28;20049;-72
2022/03/10 01:34:10;;;;;;;28.02;16.02;;;1.90;99.90;;;;;;5049499;28;20427;-71
2022/03/10 01:36:35;;;;;;;23.83;15.43;;;1.90;99.90;;;;;;5067007;28;20033;-72
2022/03/10 01:39:04;;;;;;;22.15;15.20;;;1.90;99.90;;;;;;5033246;28;20038;-72
2022/03/10 01:41:32;;;;;;;22.98;15.25;;;1.90;99.90;;;;;;5083348;28;20092;-72
2022/03/10 01:43:58;;;;;;;23.23;14.63;;;1.80;99.90;;;;;;5050030;28;20033;-73
2022/03/10 01:46:24;;;;;;;25.65;14.98;;;1.80;99.90;;;;;;5082724;28;20056;-72
2022/03/10 01:48:50;;;;;;;26.25;15.93;;;1.80;99.90;;;;;;5035319;28;20045;-72
2022/03/10 01:51:17;;;;;;;24.83;15.23;;;1.80;99.90;;;;;;5069398;28;20064;-72
2022/03/10 01:53:43;;;;;;;25.55;15.20;;;1.80;99.90;;;;;;5069864;28;20044;-73
2022/03/10 01:56:11;;;;;;;24.30;15.30;;;1.80;99.90;;;;;;5068507;28;20037;-72
2022/03/10 01:58:38;;;;;;;27.58;15.93;;;1.80;99.90;;;;;;5069489;28;20272;-72
2022/03/10 02:01:04;;;;;;;23.52;15.48;;;1.80;99.90;;;;;;5069958;28;20072;-72
2022/03/10 02:03:29;;;;;;;25.63;15.48;;;1.80;99.90;;;;;;5070439;28;20041;-72
2022/03/10 02:05:56;;;;;;;25.35;15.88;;;1.80;99.90;;;;;;5069624;28;20048;-72
2022/03/10 02:11:06;;;;;;;26.05;15.73;;;1.70;99.90;;;;;;5069402;28;20052;-72
2022/03/10 02:13:32;;;;;;;22.90;14.68;;;1.70;99.90;;;;;;5070205;28;20048;-72
2022/03/10 02:18:42;;;;;;;25.13;15.88;;;1.70;99.90;;;;;;5068852;28;20058;-73
2022/03/10 02:21:08;;;;;;;28.88;16.75;;;1.70;99.90;;;;;;5069453;28;20045;-72
2022/03/10 02:23:34;;;;;;;23.80;15.50;;;1.70;99.90;;;;;;5052887;28;20043;-72
2022/03/10 02:26:00;;;;;;;27.88;17.08;;;1.60;99.90;;;;;;5069529;28;20040;-72
2022/03/10 02:28:27;;;;;;;26.92;16.33;;;1.60;99.90;;;;;;5069018;28;20051;-72
2022/03/10 02:30:53;;;;;;;26.30;15.90;;;1.60;99.90;;;;;;5070422;28;20100;-72
2022/03/10 02:33:19;;;;;;;27.48;16.02;;;1.60;99.90;;;;;;5076353;28;20044;-72
2022/03/10 02:35:45;;;;;;;30.05;16.75;;;1.60;99.90;;;;;;5075682;28;20072;-72
2022/03/10 02:38:18;;;;;;;25.10;16.05;;;1.60;99.90;;;;;;5058486;28;20075;-72
2022/03/10 02:40:45;;;;;;;27.15;16.42;;;1.60;99.90;;;;;;5076154;28;20032;-72
2022/03/10 02:43:11;;;;;;;25.38;15.30;;;1.50;99.90;;;;;;5059017;28;20033;-72
2022/03/10 02:45:36;;;;;;;27.35;14.82;;;1.50;99.90;;;;;;5054272;28;20056;-72
2022/03/10 02:48:02;;;;;;;27.33;15.55;;;1.50;99.90;;;;;;5041110;28;20056;-72
2022/03/10 02:50:28;;;;;;;28.50;16.20;;;1.50;99.90;;;;;;5076412;28;20056;-72
2022/03/10 02:52:54;;;;;;;30.13;16.30;;;1.50;99.90;;;;;;5075229;28;20133;-72
2022/03/10 02:55:20;;;;;;;23.20;15.57;;;1.40;99.90;;;;;;5063164;28;20041;-72
2022/03/10 02:57:47;;;;;;;23.48;15.15;;;1.40;99.90;;;;;;5041797;28;20041;-72
2022/03/10 03:00:14;;;;;;;23.90;15.32;;;1.40;99.90;;;;;;5045092;28;20052;-72
2022/03/10 03:02:41;;;;;;;24.90;15.57;;;1.40;99.90;;;;;;5087696;28;20041;-72
2022/03/10 03:05:12;;;;;;;25.63;15.20;;;1.40;99.90;;;;;;5056656;28;20048;-72
2022/03/10 03:07:39;;;;;;;25.00;15.82;;;1.40;99.90;;;;;;5040087;28;20073;-72
2022/03/10 03:10:06;;;;;;;26.02;15.70;;;1.40;99.90;;;;;;5055185;28;20052;-72
2022/03/10 03:12:32;;;;;;;26.42;16.50;;;1.40;99.90;;;;;;5084457;28;20101;-72
2022/03/10 03:14:58;;;;;;;27.10;15.45;;;1.30;99.90;;;;;;5069469;28;20046;-72
2022/03/10 03:17:26;;;;;;;26.58;14.98;;;1.30;99.90;;;;;;5092137;28;20041;-72
2022/03/10 03:19:53;;;;;;;25.48;15.73;;;1.30;99.90;;;;;;5074892;28;20037;-72
2022/03/10 03:22:19;;;;;;;23.20;14.65;;;1.30;99.90;;;;;;5058407;28;20041;-72
2022/03/10 03:24:46;;;;;;;23.92;14.63;;;1.20;99.90;;;;;;5058354;28;20052;-72
2022/03/10 03:27:12;;;;;;;22.05;14.23;;;1.20;99.90;;;;;;5074253;28;20044;-72
2022/03/10 03:29:38;;;;;;;24.08;15.43;;;1.20;99.90;;;;;;5058544;28;20132;-72
2022/03/10 03:32:05;;;;;;;23.58;14.77;;;1.20;99.90;;;;;;5075283;28;20028;-72
2022/03/10 03:34:31;;;;;;;24.63;14.40;;;1.10;99.90;;;;;;5058026;28;20037;-72
2022/03/10 03:36:57;;;;;;;22.92;13.93;;;1.10;99.90;;;;;;5058028;28;20040;-71
2022/03/10 03:39:22;;;;;;;21.27;14.55;;;1.20;99.90;;;;;;5058310;28;20040;-72
2022/03/10 03:41:48;;;;;;;25.15;15.05;;;1.10;99.90;;;;;;5074526;28;20051;-72
2022/03/10 03:44:15;;;;;;;25.75;14.57;;;1.10;99.90;;;;;;5070598;28;20047;-72
2022/03/10 03:46:41;;;;;;;22.98;14.20;;;1.20;99.90;;;;;;5072335;28;20380;-72
2022/03/10 03:49:08;;;;;;;22.63;14.43;;;1.10;99.90;;;;;;5071156;28;20041;-72
2022/03/10 03:51:35;;;;;;;23.52;14.63;;;1.10;99.90;;;;;;5071458;28;20037;-72
2022/03/10 03:54:01;;;;;;;23.10;14.23;;;1.10;99.90;;;;;;5053931;28;20042;-72
2022/03/10 03:56:27;;;;;;;23.33;13.82;;;1.10;99.90;;;;;;5071600;28;20048;-72
2022/03/10 03:58:52;;;;;;;20.08;13.05;;;1.10;99.90;;;;;;5070878;28;20043;-72
2022/03/10 04:01:18;;;;;;;21.02;12.82;;;1.10;99.90;;;;;;5054278;28;20033;-73
2022/03/10 04:03:44;;;;;;;22.63;13.55;;;1.10;99.90;;;;;;5071292;28;20066;-72
2022/03/10 04:06:10;;;;;;;21.33;13.73;;;1.10;99.90;;;;;;5070885;28;20104;-72
2022/03/10 04:08:36;;;;;;;21.92;13.75;;;1.10;99.90;;;;;;5071013;28;20040;-72
2022/03/10 04:11:01;;;;;;;22.05;12.77;;;1.20;99.90;;;;;;5053848;28;20029;-72
2022/03/10 04:13:27;;;;;;;20.70;13.23;;;1.10;99.90;;;;;;5070857;28;20128;-72
2022/03/10 04:15:53;;;;;;;21.63;13.40;;;1.20;99.90;;;;;;5053928;28;20068;-72
2022/03/10 04:18:19;;;;;;;23.17;13.40;;;1.10;99.90;;;;;;5070811;28;20107;-72
2022/03/10 04:20:47;;;;;;;23.60;14.38;;;1.20;99.90;;;;;;5070609;28;20053;-72
2022/03/10 04:23:13;;;;;;;22.13;13.63;;;1.10;99.90;;;;;;5071943;28;20052;-72
2022/03/10 04:25:39;;;;;;;23.80;13.68;;;1.10;99.90;;;;;;5055028;28;20037;-72
2022/03/10 04:28:04;;;;;;;20.33;13.20;;;1.20;99.90;;;;;;5050911;28;20049;-72
2022/03/10 04:30:32;;;;;;;25.98;14.60;;;1.10;99.90;;;;;;5067360;28;20041;-72
2022/03/10 04:33:00;;;;;;;22.35;13.60;;;1.10;99.90;;;;;;5070577;28;20033;-73
2022/03/10 04:35:25;;;;;;;24.40;13.55;;;1.10;99.90;;;;;;5070078;28;20045;-72
2022/03/10 04:37:52;;;;;;;22.08;13.77;;;1.10;99.90;;;;;;5070593;28;20071;-73
2022/03/10 04:40:20;;;;;;;20.77;12.77;;;1.10;99.90;;;;;;5070072;28;20036;-73
2022/03/10 04:42:47;;;;;;;21.23;13.55;;;1.10;99.90;;;;;;5070573;28;20068;-73
2022/03/10 04:45:12;;;;;;;20.27;13.45;;;1.00;99.90;;;;;;5053362;28;20079;-73
2022/03/10 04:47:41;;;;;;;22.88;13.45;;;1.00;99.90;;;;;;5070413;28;20044;-73
2022/03/10 04:50:09;;;;;;;23.25;13.07;;;1.10;99.90;;;;;;5070198;28;20092;-73
2022/03/10 04:52:35;;;;;;;21.40;13.40;;;1.10;99.90;;;;;;5054088;28;20043;-73
2022/03/10 04:55:01;;;;;;;20.27;13.18;;;1.00;99.90;;;;;;5054304;28;20128;-72
2022/03/10 04:57:27;;;;;;;20.40;13.25;;;1.00;99.90;;;;;;5063538;28;20106;-72
2022/03/10 04:59:53;;;;;;;22.65;14.18;;;1.00;99.90;;;;;;5047324;28;20038;-73
2022/03/10 05:02:18;;;;;;;26.38;13.45;;;1.00;99.90;;;;;;5030799;28;20073;-73
2022/03/10 05:04:44;;;;;;;23.30;13.80;;;1.00;99.90;;;;;;5046836;28;20062;-73
2022/03/10 05:07:10;;;;;;;22.92;14.35;;;1.00;99.90;;;;;;5029960;28;20046;-72
2022/03/10 05:09:36;;;;;;;22.88;13.68;;;0.90;99.90;;;;;;5029966;28;20057;-73
2022/03/10 05:12:02;;;;;;;23.98;14.20;;;1.00;99.90;;;;;;5029768;28;20054;-73
2022/03/10 05:14:27;;;;;;;23.45;14.55;;;1.00;99.90;;;;;;5029510;28;20049;-73
2022/03/10 05:16:53;;;;;;;26.05;13.93;;;0.90;99.90;;;;;;5029678;28;20065;-73
2022/03/10 05:19:19;;;;;;;22.45;13.88;;;0.90;99.90;;;;;;5029907;28;20037;-73
2022/03/10 05:21:45;;;;;;;22.95;14.23;;;0.90;99.90;;;;;;5045786;28;20041;-73
2022/03/10 05:24:12;;;;;;;21.35;13.95;;;0.90;99.90;;;;;;5051956;28;20048;-74
2022/03/10 05:26:38;;;;;;;22.60;14.15;;;0.90;99.90;;;;;;5042162;28;20057;-72
2022/03/10 05:29:04;;;;;;;24.52;14.65;;;0.90;99.90;;;;;;5068099;28;20045;-73
2022/03/10 05:31:30;;;;;;;23.58;13.90;;;0.90;99.90;;;;;;5068111;28;20037;-73
2022/03/10 05:33:55;;;;;;;21.45;14.00;;;0.90;99.90;;;;;;5068855;28;20040;-73
2022/03/10 05:36:21;;;;;;;21.95;14.07;;;0.80;99.90;;;;;;5052563;28;20048;-73
2022/03/10 05:38:47;;;;;;;25.33;13.80;;;0.80;99.90;;;;;;5068490;28;20049;-73
2022/03/10 05:41:13;;;;;;;25.20;14.32;;;0.80;99.90;;;;;;5052001;28;20072;-73
2022/03/10 05:43:38;;;;;;;22.27;14.30;;;0.80;99.90;;;;;;5068226;28;20037;-73
2022/03/10 05:46:05;;;;;;;25.42;15.02;;;0.80;99.90;;;;;;5051162;28;20048;-73
2022/03/10 05:48:31;;;;;;;24.15;14.98;;;0.80;99.90;;;;;;5069140;28;20037;-73
2022/03/10 05:50:57;;;;;;;23.48;14.65;;;0.80;99.90;;;;;;5053652;28;20044;-74
2022/03/10 05:53:23;;;;;;;23.25;14.60;;;0.80;99.90;;;;;;5044749;28;20029;-74
2022/03/10 05:55:49;;;;;;;25.60;14.43;;;0.80;99.90;;;;;;5031393;28;20069;-74
2022/03/10 05:58:15;;;;;;;25.45;15.15;;;0.80;99.90;;;;;;5081647;28;20042;-74
2022/03/10 06:00:40;;;;;;;24.45;14.60;;;0.80;99.90;;;;;;5047841;28;20068;-72
2022/03/10 06:03:06;;;;;;;21.30;15.02;;;0.80;99.90;;;;;;5029913;28;20046;-72
2022/03/10 06:05:33;;;;;;;22.40;14.63;;;0.70;99.90;;;;;;5044640;28;20104;-72
2022/03/10 06:07:59;;;;;;;24.13;14.27;;;0.80;99.90;;;;;;5044574;28;20048;-73
2022/03/10 06:10:30;;;;;;;23.05;14.82;;;0.70;99.90;;;;;;5048680;28;20072;-73
2022/03/10 06:12:56;;;;;;;25.52;15.18;;;0.80;99.90;;;;;;5055425;28;20052;-73
2022/03/10 06:15:22;;;;;;;21.85;14.32;;;0.80;99.90;;;;;;5067622;28;20037;-72
2022/03/10 06:17:48;;;;;;;27.60;15.20;;;0.70;99.90;;;;;;5065234;28;20045;-74
2022/03/10 06:20:14;;;;;;;24.58;15.57;;;0.70;99.90;;;;;;5049745;28;20048;-73
2022/03/10 06:22:40;;;;;;;23.52;14.75;;;0.80;99.90;;;;;;5047848;28;20041;-73
2022/03/10 06:25:06;;;;;;;25.08;14.75;;;0.80;99.90;;;;;;5065957;28;20065;-73
2022/03/10 06:27:33;;;;;;;23.50;14.45;;;0.80;99.90;;;;;;5051680;28;20037;-74
2022/03/10 06:29:58;;;;;;;21.92;14.88;;;0.80;99.90;;;;;;5067864;28;20041;-74
2022/03/10 06:32:25;;;;;;;26.08;14.82;;;0.80;99.90;;;;;;5067967;28;20064;-73
2022/03/10 06:34:53;;;;;;;23.25;14.93;;;0.80;99.90;;;;;;5068022;28;20045;-73
2022/03/10 06:37:19;;;;;;;27.15;15.50;;;0.80;99.90;;;;;;5068407;28;20037;-73
2022/03/10 06:39:44;;;;;;;28.95;15.10;;;0.80;99.90;;;;;;5068857;28;20101;-73
2022/03/10 06:42:11;;;;;;;24.30;15.52;;;0.90;99.90;;;;;;5087040;28;20495;-73
2022/03/10 06:44:37;;;;;;;21.10;14.02;;;0.90;99.90;;;;;;5087805;28;20048;-73
2022/03/10 06:47:04;;;;;;;23.50;14.38;;;1.00;99.90;;;;;;5071138;28;20082;-74
2022/03/10 06:49:30;;;;;;;24.98;15.80;;;1.00;99.90;;;;;;5071122;28;20044;-74
2022/03/10 06:51:56;;;;;;;23.98;14.88;;;1.10;99.90;;;;;;5069908;28;20044;-74
2022/03/10 06:54:22;;;;;;;24.08;14.25;;;1.10;99.90;;;;;;5050978;28;20037;-74
2022/03/10 06:56:48;;;;;;;24.15;15.02;;;1.10;99.90;;;;;;5050901;28;20074;-74
2022/03/10 06:59:14;;;;;;;24.67;15.65;;;1.20;99.90;;;;;;5051144;28;20063;-74
2022/03/10 07:01:40;;;;;;;26.55;15.30;;;1.20;99.90;;;;;;5034026;28;20140;-74
2022/03/10 07:04:06;;;;;;;23.30;15.40;;;1.30;99.90;;;;;;5051422;28;20132;-74
2022/03/10 07:06:31;;;;;;;30.23;16.02;;;1.30;99.90;;;;;;5051492;28;20120;-74
2022/03/10 07:08:57;;;;;;;22.67;15.07;;;1.40;99.90;;;;;;5051759;28;20139;-73
2022/03/10 07:11:25;;;;;;;24.77;15.68;;;1.50;99.90;;;;;;5017681;28;20049;-74
2022/03/10 07:13:51;;;;;;;25.10;15.60;;;1.60;99.90;;;;;;5029878;28;20042;-74
2022/03/10 07:16:17;;;;;;;26.75;15.95;;;1.60;99.90;;;;;;5024095;28;20609;-74
2022/03/10 07:18:43;;;;;;;25.35;16.00;;;1.70;99.90;;;;;;5036014;28;20045;-74
2022/03/10 07:21:09;;;;;;;24.58;15.75;;;1.80;99.90;;;;;;5052528;28;20038;-73
2022/03/10 07:23:35;;;;;;;26.35;15.43;;;1.90;99.90;;;;;;5027738;28;20070;-74
2022/03/10 07:26:00;;;;;;;25.38;15.70;;;2.00;99.90;;;;;;5034311;28;20103;-74
2022/03/10 07:28:27;;;;;;;24.60;15.52;;;2.10;99.90;;;;;;5064237;28;20075;-74
2022/03/10 07:30:53;;;;;;;22.35;14.45;;;2.20;99.90;;;;;;5072668;28;20041;-75
2022/03/10 07:33:19;;;;;;;24.70;14.98;;;2.30;99.90;;;;;;5056353;28;20044;-75
2022/03/10 07:35:45;;;;;;;24.55;14.52;;;2.50;99.90;;;;;;5073529;28;20047;-75
2022/03/10 07:38:11;;;;;;;25.13;14.75;;;2.60;99.90;;;;;;5073651;28;20140;-74
2022/03/10 07:40:39;;;;;;;26.48;15.32;;;2.70;99.90;;;;;;5056881;28;20123;-75
2022/03/10 07:43:06;;;;;;;23.70;14.47;;;2.80;99.90;;;;;;5073964;28;20041;-75
2022/03/10 07:45:32;;;;;;;22.38;14.18;;;2.90;99.90;;;;;;5056649;28;20036;-75
2022/03/10 07:47:58;;;;;;;22.70;14.65;;;3.10;99.90;;;;;;5073346;28;20048;-75
2022/03/10 07:50:24;;;;;;;22.90;14.20;;;3.20;99.90;;;;;;5073371;28;20044;-75
2022/03/10 07:52:50;;;;;;;22.73;14.50;;;3.40;99.90;;;;;;5053442;28;20042;-75
2022/03/10 07:55:16;;;;;;;21.42;13.98;;;3.50;99.90;;;;;;5087518;28;20045;-75
2022/03/10 07:57:42;;;;;;;29.25;15.00;;;3.70;99.90;;;;;;5053650;28;20031;-75
2022/03/10 08:00:09;;;;;;;23.83;14.57;;;3.80;99.90;;;;;;5053352;28;20037;-75
2022/03/10 08:02:36;;;;;;;27.17;15.00;;;4.00;99.90;;;;;;5053453;28;20079;-76
2022/03/10 08:05:02;;;;;;;27.42;14.60;;;4.20;99.90;;;;;;5053596;28;20052;-76
2022/03/10 08:07:32;;;;;;;23.40;13.82;;;4.30;99.90;;;;;;5053887;28;20041;-76
2022/03/10 08:09:59;;;;;;;;;;;4.50;99.90;;;;;;5054202;28;20048;-77
2022/03/10 08:12:29;;;;;;;26.63;13.30;;;4.70;99.90;;;;;;5053852;28;19939;-77
2022/03/10 08:14:55;;;;;;;;;;;4.80;99.90;;;;;;5034834;28;20069;-76
2022/03/10 08:17:21;;;;;;;21.40;13.85;;;5.10;99.90;;;;;;5086869;28;20016;-77
2022/03/10 08:19:47;;;;;;;25.95;14.27;;;5.30;97.10;;;;;;5086959;28;20072;-77
2022/03/10 08:22:15;;;;;;;24.70;14.57;;;5.40;95.50;;;;;;5053898;28;20041;-77
2022/03/10 08:24:42;;;;;;;27.52;15.90;;;5.60;95.00;;;;;;5070831;28;20091;-75
2022/03/10 08:27:08;;;;;;;23.17;13.43;;;5.80;93.90;;;;;;5056260;28;20055;-76
2022/03/10 08:29:39;;;;;;;20.40;13.60;;;6.00;93.60;;;;;;5053859;28;20104;-77
2022/03/10 08:32:05;;;;;;;23.80;13.95;;;6.20;92.10;;;;;;5073273;28;20347;-75
2022/03/10 08:34:33;;;;;;;23.30;13.90;;;6.40;91.10;;;;;;5073935;28;20059;-74
2022/03/10 08:36:59;;;;;;;22.98;14.35;;;6.60;90.20;;;;;;5056374;28;20128;-75
2022/03/10 08:39:27;;;;;;;21.77;14.05;;;6.80;86.60;;;;;;5057444;28;20037;-75
2022/03/10 08:41:56;;;;;;;21.50;14.27;;;6.90;84.40;;;;;;5074611;28;20047;-74
2022/03/10 08:44:22;;;;;;;19.75;13.40;;;7.10;83.90;;;;;;5058606;28;20096;-74
2022/03/10 08:46:48;;;;;;;21.00;13.43;;;7.30;82.10;;;;;;5087814;28;20048;-74
2022/03/10 08:49:16;;;;;;;21.08;14.00;;;7.40;80.30;;;;;;5087144;28;20029;-75
2022/03/10 08:51:42;;;;;;;21.67;13.77;;;7.60;78.60;;;;;;5087539;28;20052;-73
2022/03/10 08:54:08;;;;;;;21.67;14.10;;;7.70;77.30;;;;;;5087874;28;20049;-75
2022/03/10 08:56:34;;;;;;;21.83;14.32;;;7.90;76.60;;;;;;5053748;28;20037;-74
2022/03/10 08:59:00;;;;;;;22.95;14.57;;;8.10;76.00;;;;;;5070184;28;20072;-75
2022/03/10 09:01:26;;;;;;;22.27;14.05;;;8.30;74.60;;;;;;5060942;28;20029;-75
2022/03/10 09:03:52;;;;;;;21.92;13.63;;;8.40;74.00;;;;;;5057255;28;20090;-74
2022/03/10 09:06:19;;;;;;;22.23;13.73;;;8.60;72.40;;;;;;5074694;28;20174;-74
2022/03/10 09:08:46;;;;;;;24.02;13.60;;;8.70;71.60;;;;;;5074778;28;20040;-74
2022/03/10 09:11:12;;;;;;;20.73;13.52;;;8.90;71.60;;;;;;5073893;28;20122;-74
2022/03/10 09:13:41;;;;;;;19.13;11.93;;;9.00;70.60;;;;;;5072351;28;20037;-75
2022/03/10 09:16:07;;;;;;;18.88;13.20;;;9.20;70.00;;;;;;5066583;28;20052;-75
2022/03/10 09:18:34;;;;;;;20.92;13.82;;;9.30;69.70;;;;;;5058476;28;20048;-75
2022/03/10 09:21:00;;;;;;;23.38;12.82;;;9.50;69.20;;;;;;5074938;28;20104;-74
2022/03/10 09:23:25;;;;;;;18.60;12.52;;;9.60;68.40;;;;;;5067403;28;20034;-74
2022/03/10 09:25:51;;;;;;;22.30;12.85;;;9.70;67.90;;;;;;5071704;28;20060;-74
2022/03/10 09:28:17;;;;;;;19.92;13.13;;;9.90;67.80;;;;;;5068198;28;20038;-74
2022/03/10 09:30:44;;;;;;;20.50;12.25;;;10.10;67.30;;;;;;5051167;28;20034;-74
2022/03/10 09:33:10;;;;;;;19.45;12.80;;;10.20;66.10;;;;;;5034915;28;20097;-73
2022/03/10 09:35:36;;;;;;;22.55;13.18;;;10.30;65.60;;;;;;5052061;28;20037;-73
2022/03/10 09:38:02;;;;;;;19.10;13.00;;;10.40;65.40;;;;;;5051590;28;20033;-76
2022/03/10 09:40:28;;;;;;;20.55;12.68;;;10.50;65.50;;;;;;5050101;28;20038;-74
2022/03/10 09:42:55;;;;;;;22.27;13.18;;;10.50;65.50;;;;;;5034990;28;20392;-74
2022/03/10 09:45:25;;;;;;;19.83;13.57;;;10.60;65.00;;;;;;5055700;28;20029;-75
2022/03/10 09:47:51;;;;;;;19.05;13.25;;;10.60;65.10;;;;;;5088051;28;20484;-75
2022/03/10 09:50:18;;;;;;;19.08;13.60;;;10.70;64.60;;;;;;5087642;28;20017;-76
2022/03/10 09:52:45;;;;;;;21.55;13.23;;;10.90;64.50;;;;;;5087792;28;20040;-76
2022/03/10 09:55:13;;;;;;;22.38;12.43;;;10.90;64.40;;;;;;5055104;28;20069;-76
2022/03/10 09:57:41;;;;;;;19.77;12.85;;;11.00;64.00;;;;;;5071534;28;20033;-75
2022/03/10 10:00:10;;;;;;;23.80;14.00;;;11.10;63.90;;;;;;5088592;28;20094;-73
2022/03/10 10:02:40;;;;;;;20.35;13.23;;;11.20;63.70;;;;;;5088738;28;20045;-76
2022/03/10 10:05:24;;;;;;;18.95;12.48;;;11.30;63.30;;;;;;5076904;28;20055;-75
2022/03/10 10:08:08;;;;;;;19.30;13.05;;;11.50;62.50;;;;;;5034610;28;20048;-76
2022/03/10 10:10:59;;;;;;;22.42;12.38;;;11.50;62.20;;;;;;5042291;28;20029;-74
2022/03/10 10:13:42;;;;;;;19.33;13.13;;;11.60;62.70;;;;;;5056050;28;20072;-74
2022/03/10 10:16:10;;;;;;;19.23;12.40;;;11.60;61.10;;;;;;5038545;28;20041;-75
2022/03/10 10:18:39;;;;;;;19.13;12.82;;;11.60;60.90;;;;;;5022104;28;20064;-74
2022/03/10 10:21:06;;;;;;;19.92;12.95;;;11.60;60.70;;;;;;5038312;28;20037;-75
2022/03/10 10:23:35;;;;;;;19.75;12.70;;;11.70;60.90;;;;;;5054865;28;20044;-74
2022/03/10 10:26:10;;;;;;;17.93;12.57;;;11.70;60.40;;;;;;5062835;28;20135;-75
2022/03/10 10:28:41;;;;;;;21.70;13.18;;;11.80;60.40;;;;;;5058068;28;20040;-75
2022/03/10 10:31:10;;;;;;;18.73;13.02;;;12.00;60.50;;;;;;5075570;28;20036;-75
2022/03/10 10:33:38;;;;;;;18.08;13.02;;;12.10;60.40;;;;;;5057658;28;20033;-74
2022/03/10 10:36:24;;;;;;;19.15;12.57;;;12.20;60.00;;;;;;5055980;28;20044;-74
2022/03/10 10:38:56;;;;;;;18.70;12.55;;;12.30;58.60;;;;;;5054225;28;20041;-74
2022/03/10 10:41:27;;;;;;;21.17;12.93;;;12.40;60.20;;;;;;5073449;28;20043;-76
2022/03/10 10:44:00;;;;;;;19.75;13.02;;;12.50;58.90;;;;;;5058972;28;20098;-76
2022/03/10 10:46:33;;;;;;;18.95;13.32;;;12.60;58.90;;;;;;5052334;28;20037;-75
2022/03/10 10:49:11;;;;;;;19.35;13.00;;;12.70;58.80;;;;;;5065671;28;20039;-81
2022/03/10 10:51:46;;;;;;;18.27;12.70;;;12.90;58.30;;;;;;5072135;28;20068;-75
2022/03/10 10:54:24;;;;;;;24.73;13.98;;;13.10;58.40;;;;;;5075679;28;20029;-76
2022/03/10 10:56:52;;;;;;;21.92;13.80;;;13.10;57.90;;;;;;5075318;28;20025;-75
2022/03/10 10:59:38;;;;;;;21.67;13.35;;;13.40;57.90;;;;;;5092694;28;20038;-76
2022/03/10 11:02:11;;;;;;;20.13;13.65;;;13.50;56.70;;;;;;5058923;28;20041;-76
2022/03/10 11:04:58;;;;;;;21.23;14.27;;;13.70;57.20;;;;;;5091942;28;20038;-76
2022/03/10 11:07:24;;;;;;;20.88;14.40;;;13.90;55.60;;;;;;5059476;28;20034;-77
2022/03/10 11:09:54;;;;;;;20.55;13.20;;;14.00;56.40;;;;;;5072126;28;20045;-77
2022/03/10 11:12:20;;;;;;;22.60;14.52;;;14.00;55.20;;;;;;5064270;28;20083;-75
2022/03/10 11:14:47;;;;;;;23.05;14.07;;;14.10;54.50;;;;;;5079021;28;20044;-74
2022/03/10 11:17:16;;;;;;;24.13;14.25;;;14.10;53.60;;;;;;5062595;28;20054;-78
2022/03/10 11:19:47;;;;;;;24.55;14.38;;;14.20;52.50;;;;;;5079740;28;20033;-78
2022/03/10 11:22:50;;;;;;;20.40;12.88;;;14.30;51.80;;;;;;5078950;28;20037;-77
2022/03/10 11:25:42;;;;;;;23.45;13.95;;;14.40;50.90;;;;;;5061779;28;20028;-80
2022/03/10 11:28:21;;;;;;;20.20;13.88;;;14.50;52.40;;;;;;5078472;28;20072;-78
2022/03/10 11:30:50;;;;;;;23.30;14.32;;;14.70;51.60;;;;;;5062250;28;20037;-78
2022/03/10 11:33:17;;;;;;;23.30;14.98;;;14.80;51.20;;;;;;5079223;28;20021;-75
2022/03/10 11:35:51;;;;;;;21.00;13.85;;;14.80;50.50;;;;;;5078868;28;20068;-78
2022/03/10 11:38:26;;;;;;;23.65;14.07;;;14.90;50.60;;;;;;5063816;28;20081;-76
2022/03/10 11:44:21;;;;;;;22.63;14.35;;;15.10;48.70;;;;;;5058626;28;20041;-76
2022/03/10 11:47:15;;;;;;;20.33;14.05;;;15.20;50.00;;;;;;5091735;28;20102;-75
2022/03/10 11:49:41;;;;;;;22.88;15.40;;;15.30;48.40;;;;;;5062098;28;20024;-76
2022/03/10 11:52:24;;;;;;;20.25;14.43;;;15.30;49.00;;;;;;5061663;28;20033;-74
2022/03/10 11:55:20;;;;;;;23.23;14.40;;;15.30;47.80;;;;;;5059473;28;20088;-75
2022/03/10 11:57:55;;;;;;;21.23;14.45;;;15.40;47.60;;;;;;5050494;28;20045;-76
2022/03/10 12:00:51;;;;;;;22.73;15.07;;;15.40;48.10;;;;;;5059069;28;20068;-74
2022/03/10 12:03:26;;;;;;;24.33;14.45;;;15.50;48.20;;;;;;5074067;28;20030;-75
2022/03/10 12:06:00;;;;;;;25.67;14.25;;;15.60;48.40;;;;;;5058709;28;20044;-75
2022/03/10 12:08:36;;;;;;;23.10;15.75;;;15.70;48.00;;;;;;5058508;28;20030;-75
2022/03/10 12:11:05;;;;;;;24.30;15.35;;;15.80;47.90;;;;;;5075192;28;20037;-76
2022/03/10 12:13:34;;;;;;;22.63;15.27;;;16.00;47.90;;;;;;5058012;28;20048;-74
2022/03/10 12:16:07;;;;;;;28.02;15.48;;;16.00;47.60;;;;;;5058811;28;20045;-77
2022/03/10 12:18:42;;;;;;;23.85;14.80;;;16.10;47.70;;;;;;5074900;28;20037;-75
2022/03/10 12:21:19;;;;;;;24.73;15.13;;;16.30;47.70;;;;;;5025328;28;20381;-74
2022/03/10 12:23:59;;;;;;;25.25;14.68;;;16.30;46.60;;;;;;5057802;28;20036;-75
2022/03/10 12:26:43;;;;;;;23.48;15.05;;;16.30;47.20;;;;;;5090768;28;20041;-75
2022/03/10 12:29:12;;;;;;;24.33;15.13;;;16.40;47.80;;;;;;5076387;28;20041;-74
2022/03/10 12:31:40;;;;;;;26.73;15.95;;;16.50;48.50;;;;;;5057727;28;20073;-76
2022/03/10 12:34:14;;;;;;;23.75;15.77;;;16.60;47.80;;;;;;5069494;28;20101;-76
2022/03/10 12:36:49;;;;;;;26.42;16.38;;;16.80;48.20;;;;;;5094542;28;20021;-76
2022/03/10 12:39:22;;;;;;;27.55;17.00;;;16.80;47.30;;;;;;5037437;28;20037;-75
2022/03/10 12:41:54;;;;;;;25.52;16.33;;;16.90;47.30;;;;;;5049959;28;20033;-77
2022/03/10 12:44:22;;;;;;;25.77;15.88;;;16.90;47.00;;;;;;5057483;28;20022;-75
2022/03/10 12:46:51;;;;;;;27.40;16.38;;;16.90;46.70;;;;;;5074239;28;20061;-75
2022/03/10 12:49:26;;;;;;;25.63;16.50;;;16.90;46.70;;;;;;5058677;28;20025;-75